createdAt,value
2024-01-05T00:03:10.099Z,38.48
2024-01-05T00:08:13.259Z,38.63
2024-01-05T00:13:18.125Z,38.74
2024-01-05T00:18:22.143Z,38.75
2024-01-05T00:23:25.117Z,38.59
2024-01-05T00:28:30.640Z,38.59
2024-01-05T00:33:33.958Z,38.49
2024-01-05T00:38:37.340Z,38.45
2024-01-05T00:43:41.651Z,38.48
2024-01-05T00:48:44.786Z,38.60
2024-01-05T00:53:48.506Z,38.38
2024-01-05T00:58:52.779Z,38.26
2024-01-05T01:03:55.882Z,38.47
2024-01-05T01:08:58.943Z,38.49
2024-01-05T01:14:03.247Z,38.34
2024-01-05T01:19:06.360Z,38.35
2024-01-05T01:24:10.139Z,38.50
2024-01-05T01:29:16.378Z,38.12
2024-01-05T01:34:19.448Z,38.48
2024-01-05T01:39:22.454Z,38.26
2024-01-05T01:44:26.693Z,38.46
2024-01-05T01:49:30.310Z,38.57
2024-01-05T01:54:34.737Z,38.34
2024-01-05T01:59:39.339Z,38.49
2024-01-05T02:04:42.731Z,38.24
2024-01-05T02:09:45.735Z,38.33
2024-01-05T02:14:49.959Z,38.53
2024-01-05T02:19:52.886Z,38.45
2024-01-05T02:24:57.971Z,38.48
2024-01-05T02:30:01.005Z,38.51
2024-01-05T02:35:04.167Z,38.19
2024-01-05T02:40:10.450Z,38.25
2024-01-05T02:45:13.427Z,38.49
2024-01-05T02:50:16.765Z,38.28
2024-01-05T02:55:21.106Z,38.27
2024-01-05T03:00:24.157Z,38.38
2024-01-05T03:05:27.160Z,38.29
2024-01-05T03:10:31.475Z,38.14
2024-01-05T03:15:34.517Z,38.04
2024-01-05T03:20:37.692Z,38.08
2024-01-05T03:25:42.009Z,38.10
2024-01-05T03:30:45.126Z,38.17
2024-01-05T03:35:48.166Z,38.38
2024-01-05T03:40:54.713Z,38.09
2024-01-05T03:45:57.700Z,38.30
2024-01-05T03:51:00.647Z,38.21
2024-01-05T03:56:05.276Z,38.29
2024-01-05T04:01:08.424Z,38.23
2024-01-05T04:06:20.467Z,38.20
2024-01-05T04:11:26.869Z,38.16
2024-01-05T04:16:29.801Z,38.23
2024-01-05T04:21:33.236Z,38.26
2024-01-05T04:26:37.631Z,38.33
2024-01-05T04:31:40.603Z,38.20
2024-01-05T04:36:43.857Z,38.02
2024-01-05T04:41:48.416Z,38.33
2024-01-05T04:46:51.322Z,38.14
2024-01-05T04:51:54.343Z,38.20
2024-01-05T04:56:59.693Z,38.18
2024-01-05T05:02:02.678Z,38.21
2024-01-05T05:07:05.850Z,38.39
2024-01-05T05:12:10.335Z,38.16
2024-01-05T05:17:13.384Z,38.33
2024-01-05T05:22:16.317Z,38.50
2024-01-05T05:27:20.563Z,38.28
2024-01-05T05:32:23.505Z,38.23
2024-01-05T05:37:26.619Z,38.35
2024-01-05T05:42:30.994Z,38.20
2024-01-05T05:47:34.360Z,38.21
2024-01-05T05:52:37.445Z,38.43
2024-01-05T05:57:42.102Z,38.20
2024-01-05T06:02:46.142Z,38.33
2024-01-05T06:07:49.002Z,38.40
2024-01-05T06:12:53.276Z,38.45
2024-01-05T06:17:56.333Z,38.40
2024-01-05T06:22:59.431Z,38.40
2024-01-05T06:28:03.857Z,38.50
2024-01-05T06:33:08.335Z,38.45
2024-01-05T06:38:11.510Z,38.25
2024-01-05T06:43:16.253Z,38.38
2024-01-05T06:48:19.294Z,38.58
2024-01-05T06:53:22.390Z,38.24
2024-01-05T06:58:28.719Z,38.16
2024-01-05T07:03:34.273Z,38.25
2024-01-05T07:08:37.287Z,38.21
2024-01-05T07:13:41.675Z,38.07
2024-01-05T07:18:44.711Z,37.72
2024-01-05T07:23:48.886Z,37.65
2024-01-05T07:28:53.184Z,37.68
2024-01-05T07:33:56.196Z,37.47
2024-01-05T07:39:00.661Z,37.52
2024-01-05T07:44:05.247Z,37.59
2024-01-05T07:49:08.280Z,37.62
2024-01-05T07:54:11.224Z,37.47
2024-01-05T07:59:16.696Z,37.51
2024-01-05T08:04:19.981Z,37.64
2024-01-05T08:09:23.665Z,37.60
2024-01-05T08:14:28.456Z,37.53
2024-01-05T08:19:31.549Z,37.63
2024-01-05T08:24:34.640Z,37.53
2024-01-05T08:29:38.972Z,37.56
2024-01-05T08:34:42.148Z,37.45
2024-01-05T08:39:45.138Z,37.65
2024-01-05T08:44:49.434Z,37.54
2024-01-05T08:49:52.455Z,37.53
2024-01-05T08:54:55.464Z,37.70
2024-01-05T08:59:59.785Z,37.64
2024-01-05T09:05:05.260Z,37.46
2024-01-05T09:10:09.831Z,37.68
2024-01-05T09:15:14.128Z,37.69
2024-01-05T09:20:17.474Z,37.58
2024-01-05T09:25:20.478Z,37.60
2024-01-05T09:30:25.956Z,37.37
2024-01-05T09:35:29.101Z,37.40
2024-01-05T09:40:32.069Z,37.48
2024-01-05T09:45:37.375Z,37.45
2024-01-05T09:50:40.675Z,37.44
2024-01-05T09:55:45.380Z,37.50
2024-01-05T10:00:51.792Z,37.53
2024-01-05T10:05:55.849Z,37.63
2024-01-05T10:11:02.191Z,37.66
2024-01-05T10:16:06.662Z,37.66
2024-01-05T10:21:10.958Z,37.53
2024-01-05T10:26:16.966Z,37.81
2024-01-05T10:31:21.450Z,37.70
2024-01-05T10:36:25.317Z,37.69
2024-01-05T10:41:29.042Z,37.85
2024-01-05T10:46:34.059Z,37.58
2024-01-05T10:51:37.528Z,37.75
2024-01-05T10:56:43.345Z,37.71
2024-01-05T11:01:48.346Z,37.93
2024-01-05T11:06:51.737Z,37.94
2024-01-05T11:12:01.386Z,37.71
2024-01-05T11:17:36.484Z,37.68
2024-01-05T11:22:42.581Z,37.76
2024-01-05T11:27:47.440Z,37.70
2024-01-05T11:32:51.868Z,37.79
2024-01-05T11:37:54.891Z,37.88
2024-01-05T11:42:58.875Z,37.67
2024-01-05T11:48:03.286Z,37.65
2024-01-05T11:53:10.609Z,37.69
2024-01-05T11:58:18.033Z,37.76
2024-01-05T12:03:25.247Z,37.79
2024-01-05T12:08:28.638Z,37.87
2024-01-05T12:13:34.250Z,37.84
2024-01-05T12:18:46.114Z,37.77
2024-01-05T12:23:54.909Z,38.00
2024-01-05T12:28:58.727Z,37.65
2024-01-05T12:34:03.842Z,37.85
2024-01-05T12:39:14.284Z,37.87
2024-01-05T12:44:17.858Z,37.83
2024-01-05T12:49:24.327Z,37.96
2024-01-05T12:54:27.911Z,38.06
2024-01-05T12:59:33.273Z,38.12
2024-01-05T13:04:40.968Z,37.98
2024-01-05T13:09:44.935Z,37.84
2024-01-05T13:14:47.824Z,38.02
2024-01-05T13:19:52.185Z,38.04
2024-01-05T13:24:55.148Z,38.15
2024-01-05T13:29:58.662Z,37.98
2024-01-05T13:35:03.046Z,37.83
2024-01-05T13:40:07.038Z,38.20
2024-01-05T13:45:11.681Z,37.95
2024-01-05T13:50:15.993Z,37.95
2024-01-05T13:55:18.868Z,37.94
2024-01-05T14:00:22.518Z,37.94
2024-01-05T14:05:26.831Z,37.97
2024-01-05T14:10:29.823Z,38.30
2024-01-05T14:15:32.754Z,38.07
2024-01-05T14:20:37.052Z,38.26
2024-01-05T14:25:39.920Z,38.23
2024-01-05T14:30:43.725Z,38.29
2024-01-05T14:35:48.309Z,38.12
2024-01-05T14:40:51.191Z,38.38
2024-01-05T14:45:54.133Z,38.31
2024-01-05T14:50:58.468Z,38.25
2024-01-05T14:56:01.562Z,38.27
2024-01-05T15:01:05.364Z,38.36
2024-01-05T15:06:10.164Z,38.29
2024-01-05T15:11:19.092Z,38.32
2024-01-05T15:16:22.864Z,38.39
2024-01-05T15:21:27.433Z,38.35
2024-01-05T15:26:30.571Z,38.30
2024-01-05T15:31:33.546Z,38.21
2024-01-05T15:36:37.895Z,38.25
2024-01-05T15:41:40.996Z,38.49
2024-01-05T15:46:44.042Z,38.22
2024-01-05T15:51:49.833Z,38.46
2024-01-05T15:56:52.923Z,38.57
2024-01-05T16:01:56.311Z,38.50
2024-01-05T16:07:00.522Z,38.57
2024-01-05T16:12:05.688Z,38.38
2024-01-05T16:17:08.675Z,38.35
2024-01-05T16:22:12.926Z,38.59
2024-01-05T16:27:15.880Z,38.23
2024-01-05T16:32:18.905Z,38.54
2024-01-05T16:37:23.228Z,38.50
2024-01-05T16:42:26.110Z,38.60
2024-01-05T16:47:29.065Z,38.50
2024-01-05T16:52:33.423Z,38.61
2024-01-05T16:57:36.367Z,38.49
2024-01-05T17:02:39.274Z,38.53
2024-01-05T17:07:43.751Z,38.48
2024-01-05T17:12:46.833Z,38.58
2024-01-05T17:17:49.885Z,38.58
2024-01-05T17:22:54.142Z,38.54
2024-01-05T17:27:57.018Z,38.53
2024-01-05T17:32:59.917Z,38.49
2024-01-05T17:38:06.346Z,38.44
2024-01-05T17:43:10.153Z,38.66
2024-01-05T17:48:14.211Z,38.53
2024-01-05T17:53:18.565Z,38.40
2024-01-05T17:58:21.500Z,38.51
2024-01-05T18:03:24.628Z,38.66
2024-01-05T18:08:29.418Z,38.38
2024-01-05T18:13:32.276Z,38.63
2024-01-05T18:18:35.986Z,38.63
2024-01-05T18:23:41.698Z,38.61
2024-01-05T18:28:44.566Z,38.76
2024-01-05T18:33:48.037Z,38.71
2024-01-05T18:38:52.764Z,38.89
2024-01-05T18:43:55.730Z,38.78
2024-01-05T18:48:58.763Z,38.94
2024-01-05T18:54:04.984Z,38.94
2024-01-05T18:59:08.103Z,39.02
2024-01-05T19:04:11.427Z,38.97
2024-01-05T19:09:15.909Z,39.18
2024-01-05T19:14:21.358Z,39.08
2024-01-05T19:19:24.698Z,39.25
2024-01-05T19:24:29.660Z,39.12
2024-01-05T19:29:32.638Z,39.18
2024-01-05T19:34:37.212Z,39.45
2024-01-05T19:39:41.493Z,39.33
2024-01-05T19:44:44.456Z,39.20
2024-01-05T19:49:47.738Z,39.36
2024-01-05T19:54:55.907Z,39.43
2024-01-05T19:59:59.274Z,39.47
2024-01-05T20:05:02.212Z,39.40
2024-01-05T20:10:07.112Z,39.24
2024-01-05T20:15:10.830Z,39.54
2024-01-05T20:20:13.831Z,39.23
2024-01-05T20:25:18.239Z,39.49
2024-01-05T20:30:21.211Z,39.45
2024-01-05T20:35:24.217Z,39.45
2024-01-05T20:40:28.575Z,39.47
2024-01-05T20:45:31.593Z,39.46
2024-01-05T20:50:34.528Z,39.44
2024-01-05T20:55:38.863Z,39.25
2024-01-05T21:00:41.992Z,39.37
2024-01-05T21:05:45.034Z,39.47
2024-01-05T21:10:49.734Z,39.41
2024-01-05T21:15:54.943Z,39.40
2024-01-05T21:20:59.685Z,39.34
2024-01-05T21:26:06.599Z,39.38
2024-01-05T21:31:10.774Z,39.30
2024-01-05T21:36:14.137Z,39.11
2024-01-05T21:41:20.038Z,39.22
2024-01-05T21:46:24.227Z,39.21
2024-01-05T21:51:27.484Z,39.35
2024-01-05T21:56:31.796Z,39.26
2024-01-05T22:01:34.846Z,39.36
2024-01-05T22:06:38.970Z,39.14
2024-01-05T22:11:43.895Z,39.03
2024-01-05T22:16:47.037Z,39.17
2024-01-05T22:21:49.948Z,39.41
2024-01-05T22:26:54.270Z,39.18
2024-01-05T22:31:57.138Z,39.28
2024-01-05T22:37:01.115Z,39.31
2024-01-05T22:42:06.387Z,39.07
2024-01-05T22:47:09.426Z,39.27
2024-01-05T22:52:14.914Z,39.04
2024-01-05T22:57:19.164Z,39.32
2024-01-05T23:02:22.075Z,38.99
2024-01-05T23:07:25.134Z,39.19
2024-01-05T23:12:30.613Z,39.19
2024-01-05T23:17:33.594Z,39.24
2024-01-05T23:22:36.652Z,39.04
2024-01-05T23:27:40.979Z,38.95
2024-01-05T23:32:43.965Z,39.00
2024-01-05T23:37:46.945Z,39.01
2024-01-05T23:42:51.150Z,38.96
2024-01-05T23:47:54.944Z,38.96
2024-01-05T23:52:57.912Z,39.07
2024-01-05T23:58:02.107Z,39.11
